^^
Saratoga-Weather Station Historical Data
Daily Summary for August 05, 2022 Units:  Metric    English   Both
Daily Weekly Monthly Yearly Custom
  High: Low: Average:
Temperature: 25.6 °C 18.7 °C 21.4 °C
Dew Point: 20.2 °C 13.2 °C 17.5 °C
Humidity: 94% 50% 80%
Wind Speed: 16.3km/h 0km/h 4.4km/h
Wind Gust: 24.1km/h - -
Wind- - West
Pressure: 1021.3 hPa 1010.2 hPa -
Precipitation: 8.9 mm    
Historical Graphs
 
 
Tabular Data for August 05, 2022
Time Temperature Dew Point Pressure Wind Wind Speed Wind Gust Humidity Rainfall Rate (Hourly) solar
00:01 22.9 °C 19.9 °C 1012.9 hPa Calm   3.2 km/h 83% 0.8 mm 0 W/m2
00:06 22.7 °C 19.9 °C 1012.5 hPa East 3.2 km/h 3.2 km/h 84% 0.8 mm 0 W/m2
00:11 22.6 °C 20.1 °C 1011.9 hPa Calm   1.6 km/h 86% 0.8 mm 0 W/m2
00:16 22.4 °C 20.1 °C 1011.5 hPa SSW 1.4 km/h 3.2 km/h 87% 0.8 mm 0 W/m2
00:21 22.3 °C 20.2 °C 1011.5 hPa Calm   1.6 km/h 88% 0.8 mm 0 W/m2
00:26 22.1 °C 20 °C 1011.5 hPa Calm   1.6 km/h 88% 0.8 mm 0 W/m2
00:31 21.9 °C 19.8 °C 1011.5 hPa South 3.2 km/h 3.2 km/h 88% 0.5 mm 0 W/m2
00:36 21.8 °C 19.9 °C 1011.9 hPa SSW 1.4 km/h 3.2 km/h 89% 0.5 mm 0 W/m2
00:41 21.8 °C 20.1 °C 1012.2 hPa SSW 1.4 km/h 3.2 km/h 90% 0.5 mm 0 W/m2
00:46 21.7 °C 20 °C 1012.2 hPa SSW 1.4 km/h 3.2 km/h 90% 0.5 mm 0 W/m2
00:51 21.7 °C 20 °C 1012.5 hPa SSW 1.4 km/h 1.6 km/h 90% 0.5 mm 0 W/m2
00:56 21.6 °C 19.9 °C 1012.2 hPa Calm   1.6 km/h 90% 0.5 mm 0 W/m2
01:02 21.6 °C 20.1 °C 1012.2 hPa Calm     91% 0.2 mm 0 W/m2
01:07 21.5 °C 20 °C 1011.9 hPa Calm   1.6 km/h 91% 0.2 mm 0 W/m2
01:12 21.5 °C 20 °C 1011.9 hPa Calm     91% 0.2 mm 0 W/m2
01:17 21.4 °C 19.9 °C 1011.9 hPa Calm   1.6 km/h 91% 0.2 mm 0 W/m2
01:22 21.4 °C 19.9 °C 1011.5 hPa Calm   3.2 km/h 91% 0.2 mm 0 W/m2
01:27 21.3 °C 19.8 °C 1011.2 hPa Calm   1.6 km/h 91% 0.0 mm 0 W/m2
01:32 21.3 °C 19.8 °C 1010.8 hPa SSW 1.4 km/h 3.2 km/h 91% 0.0 mm 0 W/m2
01:37 21.2 °C 19.7 °C 1010.8 hPa Calm   3.2 km/h 91% 0.0 mm 0 W/m2
01:42 21.2 °C 19.7 °C 1010.8 hPa Calm   1.6 km/h 91% 0.0 mm 0 W/m2
01:47 21.2 °C 19.8 °C 1010.8 hPa Calm   3.2 km/h 92% 0.0 mm 0 W/m2
01:52 21.2 °C 19.8 °C 1010.5 hPa SSW 1.4 km/h 3.2 km/h 92% 0.0 mm 0 W/m2
01:57 21.1 °C 19.7 °C 1010.5 hPa Calm   3.2 km/h 92% 0.0 mm 0 W/m2
02:02 21.1 °C 19.7 °C 1010.2 hPa Calm     92% 0.0 mm 0 W/m2
02:07 21.1 °C 19.7 °C 1010.2 hPa SSW 3.2 km/h 3.2 km/h 92% 0.0 mm 0 W/m2
02:12 21.1 °C 19.7 °C 1010.2 hPa West 1.4 km/h 4.8 km/h 92% 0.0 mm 0 W/m2
02:17 21.2 °C 19.8 °C 1010.5 hPa SW 1.4 km/h 3.2 km/h 92% 0.0 mm 0 W/m2
02:22 21.2 °C 19.8 °C 1010.5 hPa SW 1.4 km/h 4.8 km/h 92% 0.0 mm 0 W/m2
02:27 21.3 °C 19.9 °C 1010.5 hPa SW 1.4 km/h 3.2 km/h 92% 0.0 mm 0 W/m2
02:32 21.3 °C 19.9 °C 1010.8 hPa Calm   1.6 km/h 92% 0.2 mm 0 W/m2
02:37 21.3 °C 19.9 °C 1011.2 hPa Calm     92% 0.2 mm 0 W/m2
02:42 21.2 °C 19.8 °C 1011.9 hPa WNW 6.4 km/h 14.5 km/h 92% 0.2 mm 0 W/m2
02:47 21.2 °C 19.8 °C 1011.5 hPa NW 3.2 km/h 4.8 km/h 92% 0.2 mm 0 W/m2
02:52 21.2 °C 19.7 °C 1010.8 hPa ENE 1.4 km/h 9.7 km/h 91% 0.2 mm 0 W/m2
02:57 21.2 °C 19.5 °C 1011.2 hPa ESE 1.4 km/h 1.6 km/h 90% 0.2 mm 0 W/m2
03:02 21.2 °C 19.7 °C 1010.8 hPa WSW 3.2 km/h 6.4 km/h 91% 0.2 mm 0 W/m2
03:07 21.2 °C 19.7 °C 1011.2 hPa SW 1.4 km/h 4.8 km/h 91% 0.2 mm 0 W/m2
03:12 21.1 °C 19.6 °C 1011.2 hPa West 3.2 km/h 8 km/h 91% 0.2 mm 0 W/m2
03:17 21 °C 19.3 °C 1011.2 hPa West 6.4 km/h 11.3 km/h 90% 0.2 mm 0 W/m2
03:22 21.1 °C 19.2 °C 1011.9 hPa West 6.4 km/h 14.5 km/h 89% 0.2 mm 0 W/m2
03:27 21.2 °C 19.1 °C 1011.9 hPa WSW 7.9 km/h 14.5 km/h 88% 0.2 mm 0 W/m2
03:32 21.1 °C 19 °C 1012.2 hPa West 3.2 km/h 12.9 km/h 88% 0.5 mm 0 W/m2
03:37 20.8 °C 19.1 °C 1012.9 hPa WNW 7.9 km/h 19.3 km/h 90% 0.5 mm 0 W/m2
03:42 20.7 °C 19.2 °C 1013.5 hPa West 14.3 km/h 16.1 km/h 91% 0.5 mm 0 W/m2
03:47 20.7 °C 19.2 °C 1013.5 hPa WSW 7.9 km/h 12.9 km/h 91% 0.8 mm 0 W/m2
03:52 20.7 °C 19.4 °C 1013.5 hPa WNW 6.4 km/h 17.7 km/h 92% 1.3 mm 0 W/m2
03:57 20.7 °C 19.4 °C 1013.5 hPa West 6.4 km/h 11.3 km/h 92% 1.5 mm 0 W/m2
04:02 20.6 °C 19.3 °C 1013.2 hPa WNW 11.1 km/h 19.3 km/h 92% 1.8 mm 0 W/m2
04:07 20.6 °C 19.3 °C 1013.2 hPa WSW 6.4 km/h 12.9 km/h 92% 1.8 mm 0 W/m2
04:12 20.6 °C 19.3 °C 1013.2 hPa West 11.1 km/h 17.7 km/h 92% 1.8 mm 0 W/m2
04:17 20.6 °C 19.4 °C 1013.2 hPa West 4.7 km/h 12.9 km/h 93% 2.0 mm 0 W/m2
04:22 20.6 °C 19.4 °C 1013.2 hPa West 14.3 km/h 19.3 km/h 93% 2.0 mm 0 W/m2
04:27 20.6 °C 19.4 °C 1013.2 hPa West 4.7 km/h 14.5 km/h 93% 2.3 mm 0 W/m2
04:32 20.6 °C 19.3 °C 1013.2 hPa West 4.7 km/h 14.5 km/h 92% 1.8 mm 0 W/m2
04:37 20.6 °C 19.3 °C 1013.5 hPa WSW 11.1 km/h 22.5 km/h 92% 1.8 mm 0 W/m2
04:42 20.7 °C 19.2 °C 1013.5 hPa NW 16.3 km/h 22.5 km/h 91% 1.8 mm 0 W/m2
04:47 20.6 °C 19.1 °C 1013.9 hPa WNW 13 km/h 19.3 km/h 91% 1.5 mm 0 W/m2
04:52 20.6 °C 19.1 °C 1014.2 hPa WSW 16.3 km/h 24.1 km/h 91% 0.8 mm 0 W/m2
04:57 20.4 °C 18.9 °C 1013.5 hPa WSW 11.1 km/h 17.7 km/h 91% 1.5 mm 0 W/m2
05:02 20.3 °C 19 °C 1013.5 hPa WSW 11.1 km/h 12.9 km/h 92% 1.5 mm 0 W/m2
05:07 20.2 °C 18.9 °C 1013.2 hPa WSW 13 km/h 16.1 km/h 92% 1.8 mm 0 W/m2
05:12 20.2 °C 18.9 °C 1012.9 hPa WNW 6.4 km/h 12.9 km/h 92% 1.8 mm 0 W/m2
05:17 20.1 °C 18.8 °C 1012.5 hPa WNW 4.7 km/h 12.9 km/h 92% 1.5 mm 0 W/m2
05:22 20.1 °C 18.8 °C 1012.5 hPa WNW 3.2 km/h 6.4 km/h 92% 1.5 mm 0 W/m2
05:27 19.9 °C 18.6 °C 1012.5 hPa West 4.7 km/h 12.9 km/h 92% 1.5 mm 0 W/m2
05:32 19.8 °C 18.5 °C 1012.5 hPa West 4.7 km/h 11.3 km/h 92% 1.5 mm 0 W/m2
05:37 19.8 °C 18.5 °C 1012.9 hPa SW 1.4 km/h 8 km/h 92% 1.5 mm 0 W/m2
05:42 19.8 °C 18.5 °C 1013.5 hPa SW 3.2 km/h 11.3 km/h 92% 1.5 mm 0 W/m2
05:47 19.7 °C 18.4 °C 1013.5 hPa WSW 1.4 km/h 6.4 km/h 92% 1.5 mm 0 W/m2
05:52 19.7 °C 18.4 °C 1013.2 hPa SSE 3.2 km/h 4.8 km/h 92% 1.8 mm 0 W/m2
05:57 19.7 °C 18.4 °C 1013.2 hPa SSE 1.4 km/h 6.4 km/h 92% 0.8 mm 0 W/m2
06:02 19.6 °C 18.4 °C 1013.2 hPa Calm   1.6 km/h 93% 0.5 mm 0 W/m2
06:07 19.6 °C 18.4 °C 1013.2 hPa SE 1.4 km/h 4.8 km/h 93% 0.5 mm 0 W/m2
06:12 19.7 °C 18.7 °C 1012.9 hPa ESE 1.4 km/h 3.2 km/h 94% 0.5 mm 0 W/m2
06:17 19.7 °C 18.7 °C 1012.9 hPa Calm     94% 0.5 mm 0 W/m2
06:22 19.6 °C 18.6 °C 1012.9 hPa Calm     94% 0.5 mm 0 W/m2
06:27 19.6 °C 18.6 °C 1012.2 hPa East 1.4 km/h 3.2 km/h 94% 0.5 mm 0 W/m2
06:32 19.6 °C 18.6 °C 1012.2 hPa South 1.4 km/h 3.2 km/h 94% 0.5 mm 5 W/m2
06:37 19.6 °C 18.6 °C 1012.2 hPa Calm   1.6 km/h 94% 0.8 mm 7 W/m2
06:42 19.6 °C 18.6 °C 1012.2 hPa Calm   1.6 km/h 94% 0.8 mm 7 W/m2
06:47 19.6 °C 18.6 °C 1012.2 hPa Calm     94% 0.5 mm 0 W/m2
06:52 19.6 °C 18.6 °C 1012.5 hPa Calm     94% 0.5 mm 0 W/m2
06:57 19.5 °C 18.5 °C 1012.5 hPa Calm     94% 0.5 mm 7 W/m2
07:02 19.5 °C 18.5 °C 1012.5 hPa Calm     94% 0.5 mm 9 W/m2
07:07 19.4 °C 18.4 °C 1012.5 hPa South 1.4 km/h 3.2 km/h 94% 0.2 mm 11 W/m2
07:12 19.3 °C 18.3 °C 1012.9 hPa NNW 3.2 km/h 6.4 km/h 94% 0.2 mm 9 W/m2
07:17 19.2 °C 18.2 °C 1012.9 hPa NNW 1.4 km/h 3.2 km/h 94% 0.2 mm 7 W/m2
07:22 19.2 °C 18.2 °C 1012.9 hPa Calm   6.4 km/h 94% 0.2 mm 7 W/m2
07:27 19.2 °C 18.2 °C 1012.9 hPa NNW 1.4 km/h 1.6 km/h 94% 0.2 mm 7 W/m2
07:32 19.2 °C 18.2 °C 1012.5 hPa ESE 3.2 km/h 4.8 km/h 94% 0.5 mm 7 W/m2
07:37 19.1 °C 17.9 °C 1012.5 hPa WNW 3.2 km/h 4.8 km/h 93% 0.5 mm 7 W/m2
07:42 19 °C 17.8 °C 1012.9 hPa NW 1.4 km/h 3.2 km/h 93% 1.0 mm 12 W/m2
07:47 19.1 °C 17.8 °C 1013.2 hPa NW 6.4 km/h 9.7 km/h 92% 1.0 mm 16 W/m2
07:52 19.2 °C 17.7 °C 1013.2 hPa NW 1.4 km/h 9.7 km/h 91% 1.0 mm 16 W/m2
07:57 19.3 °C 17.8 °C 1013.2 hPa Calm   3.2 km/h 91% 1.0 mm 14 W/m2
08:02 19.4 °C 17.7 °C 1013.5 hPa NW 4.7 km/h 8 km/h 90% 1.3 mm 11 W/m2
08:07 19.4 °C 17.5 °C 1013.5 hPa West 3.2 km/h 14.5 km/h 89% 1.5 mm 11 W/m2
08:12 19.6 °C 17.7 °C 1013.2 hPa NNW 6.4 km/h 8 km/h 89% 1.5 mm 11 W/m2
08:17 19.5 °C 17.6 °C 1013.5 hPa West 6.4 km/h 8 km/h 89% 2.0 mm 12 W/m2
08:22 19.4 °C 17.5 °C 1013.5 hPa WNW 7.9 km/h 12.9 km/h 89% 2.3 mm 14 W/m2
08:27 19.3 °C 17.4 °C 1012.9 hPa West 4.7 km/h 11.3 km/h 89% 2.5 mm 21 W/m2
08:32 19.2 °C 17.5 °C 1012.9 hPa WSW 3.2 km/h 4.8 km/h 90% 2.3 mm 26 W/m2
08:37 19.1 °C 17.4 °C 1012.9 hPa West 4.7 km/h 9.7 km/h 90% 2.3 mm 26 W/m2
08:42 19 °C 17.5 °C 1013.2 hPa West 4.7 km/h 9.7 km/h 91% 1.8 mm 28 W/m2
08:47 18.9 °C 17.4 °C 1013.2 hPa SW 6.4 km/h 11.3 km/h 91% 2.3 mm 30 W/m2
08:52 18.8 °C 17.5 °C 1013.2 hPa WSW 16.3 km/h 16.1 km/h 92% 2.3 mm 28 W/m2
08:58 18.8 °C 17.5 °C 1013.5 hPa WNW 6.4 km/h 9.7 km/h 92% 2.3 mm 30 W/m2
09:03 18.8 °C 17.5 °C 1013.5 hPa West 1.4 km/h 16.1 km/h 92% 2.0 mm 28 W/m2
09:08 18.8 °C 17.5 °C 1013.2 hPa WNW 4.7 km/h 6.4 km/h 92% 1.8 mm 25 W/m2
09:13 18.8 °C 17.5 °C 1013.5 hPa WSW 3.2 km/h 6.4 km/h 92% 1.5 mm 51 W/m2
09:18 18.8 °C 17.5 °C 1013.9 hPa Calm   6.4 km/h 92% 1.3 mm 40 W/m2
09:23 18.8 °C 17.5 °C 1013.9 hPa WNW 3.2 km/h 6.4 km/h 92% 1.0 mm 26 W/m2
09:28 18.8 °C 17.5 °C 1013.5 hPa West 4.7 km/h 9.7 km/h 92% 0.8 mm 21 W/m2
09:33 18.8 °C 17.5 °C 1012.9 hPa SE 4.7 km/h 4.8 km/h 92% 0.5 mm 35 W/m2
09:38 18.8 °C 17.6 °C 1013.5 hPa WNW 4.7 km/h 6.4 km/h 93% 0.8 mm 46 W/m2
09:43 18.8 °C 17.6 °C 1013.2 hPa West 3.2 km/h 6.4 km/h 93% 0.5 mm 69 W/m2
09:48 18.8 °C 17.6 °C 1014.2 hPa West 6.4 km/h 11.3 km/h 93% 0.5 mm 67 W/m2
09:53 18.7 °C 17.5 °C 1014.2 hPa West 3.2 km/h 11.3 km/h 93% 0.5 mm 65 W/m2
09:58 18.7 °C 17.5 °C 1014.6 hPa NW 6.4 km/h 9.7 km/h 93% 0.5 mm 58 W/m2
10:03 18.7 °C 17.5 °C 1014.2 hPa WSW 4.7 km/h 6.4 km/h 93% 0.5 mm 107 W/m2
10:08 18.8 °C 17.6 °C 1014.2 hPa NW 3.2 km/h 4.8 km/h 93% 0.5 mm 111 W/m2
10:13 18.8 °C 17.6 °C 1014.2 hPa West 1.4 km/h 3.2 km/h 93% 0.5 mm 163 W/m2
10:18 18.9 °C 17.7 °C 1014.2 hPa ESE 1.4 km/h 4.8 km/h 93% 0.5 mm 137 W/m2
10:23 18.9 °C 17.7 °C 1014.6 hPa Calm     93% 0.5 mm 137 W/m2
10:28 19.1 °C 17.9 °C 1014.9 hPa Calm   1.6 km/h 93% 0.5 mm 121 W/m2
10:33 19.2 °C 18 °C 1014.9 hPa SW 3.2 km/h 4.8 km/h 93% 0.5 mm 79 W/m2
10:38 19.1 °C 17.9 °C 1014.9 hPa NW 3.2 km/h 3.2 km/h 93% 0.5 mm 69 W/m2
10:43 19.2 °C 18 °C 1014.9 hPa NW 4.7 km/h 9.7 km/h 93% 0.5 mm 86 W/m2
10:48 19.2 °C 18 °C 1014.9 hPa West 4.7 km/h 11.3 km/h 93% 0.5 mm 123 W/m2
10:53 19.2 °C 18 °C 1014.9 hPa WSW 4.7 km/h 11.3 km/h 93% 0.5 mm 127 W/m2
10:58 19.2 °C 18 °C 1014.9 hPa WNW 6.4 km/h 6.4 km/h 93% 0.5 mm 156 W/m2
11:03 19.3 °C 18.1 °C 1014.6 hPa NW 1.4 km/h 9.7 km/h 93% 0.2 mm 167 W/m2
11:08 19.4 °C 18.2 °C 1014.6 hPa West 9.7 km/h 11.3 km/h 93% 0.2 mm 193 W/m2
11:13 19.4 °C 18.2 °C 1014.6 hPa West 1.4 km/h 6.4 km/h 93% 0.2 mm 283 W/m2
11:18 19.6 °C 18.4 °C 1014.6 hPa North 7.9 km/h 11.3 km/h 93% 0.2 mm 408 W/m2
11:23 19.8 °C 18.6 °C 1014.9 hPa West 13 km/h 12.9 km/h 93% 0.5 mm 598 W/m2
11:28 19.9 °C 18.7 °C 1014.9 hPa Calm   6.4 km/h 93% 0.5 mm 218 W/m2
11:33 20 °C 18.7 °C 1014.9 hPa SSW 1.4 km/h 4.8 km/h 92% 0.5 mm 167 W/m2
11:38 20.1 °C 18.6 °C 1015.2 hPa West 3.2 km/h 4.8 km/h 91% 0.2 mm 162 W/m2
11:43 20.1 °C 18.6 °C 1015.2 hPa WSW 4.7 km/h 4.8 km/h 91% 0.2 mm 207 W/m2
11:48 20.1 °C 18.6 °C 1015.2 hPa SW 3.2 km/h 8 km/h 91% 0.2 mm 237 W/m2
11:53 20.2 °C 18.7 °C 1015.2 hPa WSW 7.9 km/h 14.5 km/h 91% 0.2 mm 260 W/m2
11:58 20.2 °C 18.7 °C 1015.2 hPa WNW 1.4 km/h 11.3 km/h 91% 0.2 mm 338 W/m2
12:03 20.3 °C 18.6 °C 1015.2 hPa SSW 4.7 km/h 14.5 km/h 90% 0.2 mm 443 W/m2
12:08 20.4 °C 18.7 °C 1015.2 hPa WNW 6.4 km/h 11.3 km/h 90% 0.2 mm 197 W/m2
12:13 20.4 °C 18.5 °C 1015.2 hPa WNW 1.4 km/h 14.5 km/h 89% 0.2 mm 278 W/m2
12:18 20.5 °C 18.6 °C 1015.2 hPa West 4.7 km/h 9.7 km/h 89% 0.2 mm 418 W/m2
12:23 20.6 °C 18.7 °C 1015.2 hPa WSW 9.7 km/h 9.7 km/h 89% 0.0 mm 329 W/m2
12:28 20.7 °C 18.6 °C 1015.2 hPa West 11.1 km/h 16.1 km/h 88% 0.0 mm 392 W/m2
12:33 20.8 °C 18.7 °C 1015.2 hPa West 1.4 km/h 11.3 km/h 88% 0.0 mm 513 W/m2
12:38 21.1 °C 19 °C 1015.2 hPa WNW 3.2 km/h 16.1 km/h 88% 0.0 mm 257 W/m2
12:43 21.1 °C 18.9 °C 1015.2 hPa WSW 11.1 km/h 12.9 km/h 87% 0.0 mm 410 W/m2
12:48 21 °C 18.6 °C 1015.2 hPa West 6.4 km/h 14.5 km/h 86% 0.0 mm 285 W/m2
12:53 21.1 °C 18.7 °C 1015.2 hPa WNW 11.1 km/h 14.5 km/h 86% 0.0 mm 241 W/m2
12:58 21.2 °C 18.6 °C 1015.2 hPa NW 6.4 km/h 14.5 km/h 85% 0.0 mm 104 W/m2
13:03 21.1 °C 18.7 °C 1015.6 hPa NW 6.4 km/h 12.9 km/h 86% 0.0 mm 86 W/m2
13:08 20.8 °C 18.4 °C 1015.6 hPa WSW 11.1 km/h 11.3 km/h 86% 0.0 mm 79 W/m2
13:13 20.6 °C 18.2 °C 1015.6 hPa WNW 3.2 km/h 9.7 km/h 86% 0.0 mm 100 W/m2
13:18 20.5 °C 18.3 °C 1015.6 hPa West 9.7 km/h 11.3 km/h 87% 0.0 mm 130 W/m2
13:23 20.5 °C 18.3 °C 1015.6 hPa West 1.4 km/h 6.4 km/h 87% 0.0 mm 86 W/m2
13:28 20.5 °C 18.4 °C 1016.3 hPa WSW 6.4 km/h 11.3 km/h 88% 0.0 mm 70 W/m2
13:33 20.4 °C 18.3 °C 1016.3 hPa West 1.4 km/h 14.5 km/h 88% 0.0 mm 72 W/m2
13:38 20.3 °C 18.2 °C 1015.9 hPa ESE 1.4 km/h 4.8 km/h 88% 0.0 mm 165 W/m2
13:43 20.4 °C 18.5 °C 1015.9 hPa WSW 3.2 km/h 14.5 km/h 89% 0.0 mm 292 W/m2
13:48 20.7 °C 18.6 °C 1015.9 hPa West 9.7 km/h 9.7 km/h 88% 0.0 mm 443 W/m2
13:53 21 °C 18.8 °C 1015.6 hPa WNW 13 km/h 14.5 km/h 87% 0.0 mm 236 W/m2
13:58 21.2 °C 18.8 °C 1015.6 hPa West 9.7 km/h 11.3 km/h 86% 0.0 mm 244 W/m2
14:03 21.4 °C 19 °C 1015.6 hPa WSW 3.2 km/h 6.4 km/h 86% 0.0 mm 436 W/m2
14:08 21.7 °C 19.1 °C 1015.9 hPa West 3.2 km/h 6.4 km/h 85% 0.0 mm 364 W/m2
14:13 21.9 °C 19.3 °C 1015.9 hPa WNW 4.7 km/h 4.8 km/h 85% 0.0 mm 250 W/m2
14:18 22.1 °C 19.3 °C 1015.9 hPa West 4.7 km/h 9.7 km/h 84% 0.0 mm 329 W/m2
14:23 22.2 °C 19.2 °C 1015.9 hPa NW 4.7 km/h 6.4 km/h 83% 0.0 mm 420 W/m2
14:28 22.4 °C 19.4 °C 1015.9 hPa West 4.7 km/h 4.8 km/h 83% 0.0 mm 362 W/m2
14:33 22.7 °C 19.5 °C 1015.9 hPa WNW 6.4 km/h 11.3 km/h 82% 0.0 mm 524 W/m2
14:38 22.9 °C 19.7 °C 1015.9 hPa West 1.4 km/h 6.4 km/h 82% 0.0 mm 359 W/m2
14:43 23.1 °C 19.5 °C 1015.9 hPa NW 6.4 km/h 12.9 km/h 80% 0.0 mm 371 W/m2
14:48 23.2 °C 19.1 °C 1015.9 hPa West 4.7 km/h 11.3 km/h 78% 0.0 mm 911 W/m2
14:53 23.4 °C 19.3 °C 1015.9 hPa WNW 14.3 km/h 14.5 km/h 78% 0.0 mm 366 W/m2
14:58 23.3 °C 19 °C 1015.9 hPa West 4.7 km/h 11.3 km/h 77% 0.0 mm 378 W/m2
15:03 23.2 °C 18.9 °C 1015.9 hPa West 11.1 km/h 14.5 km/h 77% 0.0 mm 311 W/m2
15:08 23.1 °C 19.1 °C 1016.3 hPa West 4.7 km/h 12.9 km/h 78% 0.0 mm 265 W/m2
15:13 23.2 °C 18.9 °C 1016.3 hPa WSW 6.4 km/h 6.4 km/h 77% 0.0 mm 302 W/m2
15:18 23.3 °C 19 °C 1016.3 hPa West 1.4 km/h 9.7 km/h 77% 0.0 mm 341 W/m2
15:23 23.4 °C 19.3 °C 1015.9 hPa North 6.4 km/h 11.3 km/h 78% 0.0 mm 700 W/m2
15:28 23.7 °C 19.4 °C 1015.9 hPa WNW 4.7 km/h 11.3 km/h 77% 0.0 mm 424 W/m2
15:33 23.8 °C 19.1 °C 1015.9 hPa NW 9.7 km/h 12.9 km/h 75% 0.0 mm 336 W/m2
15:38 23.7 °C 18.6 °C 1015.9 hPa West 1.4 km/h 14.5 km/h 73% 0.0 mm 297 W/m2
15:43 23.8 °C 18.9 °C 1015.9 hPa WNW 3.2 km/h 11.3 km/h 74% 0.0 mm 269 W/m2
15:48 23.8 °C 19.1 °C 1015.9 hPa West 6.4 km/h 14.5 km/h 75% 0.0 mm 288 W/m2
15:53 23.8 °C 18.9 °C 1015.9 hPa West 6.4 km/h 11.3 km/h 74% 0.0 mm 279 W/m2
15:58 23.8 °C 19.1 °C 1015.9 hPa WNW 3.2 km/h 6.4 km/h 75% 0.0 mm 418 W/m2
16:03 23.9 °C 19 °C 1015.9 hPa West 3.2 km/h 6.4 km/h 74% 0.0 mm 218 W/m2
16:08 24.1 °C 19.4 °C 1016.3 hPa NW 4.7 km/h 4.8 km/h 75% 0.0 mm 272 W/m2
16:13 24.2 °C 19.3 °C 1015.9 hPa Calm   4.8 km/h 74% 0.0 mm 232 W/m2
16:18 24.2 °C 19.3 °C 1015.9 hPa NW 1.4 km/h 1.6 km/h 74% 0.0 mm 267 W/m2
16:23 24.4 °C 19.2 °C 1016.3 hPa Calm   4.8 km/h 73% 0.0 mm 264 W/m2
16:28 24.6 °C 19.4 °C 1015.9 hPa Calm   3.2 km/h 73% 0.0 mm 241 W/m2
16:33 24.6 °C 18.3 °C 1015.9 hPa North 9.7 km/h 12.9 km/h 68% 0.0 mm 206 W/m2
16:38 24.7 °C 16.9 °C 1016.3 hPa WNW 6.4 km/h 16.1 km/h 62% 0.0 mm 186 W/m2
16:43 24.8 °C 16.8 °C 1016.3 hPa West 6.4 km/h 9.7 km/h 61% 0.0 mm 239 W/m2
16:48 24.8 °C 17 °C 1016.3 hPa NW 3.2 km/h 6.4 km/h 62% 0.0 mm 299 W/m2
16:54 24.9 °C 17.1 °C 1016.3 hPa North 4.7 km/h 11.3 km/h 62% 0.0 mm 214 W/m2
16:59 24.9 °C 16.6 °C 1016.3 hPa WNW 6.4 km/h 16.1 km/h 60% 0.0 mm 497 W/m2
17:04 24.8 °C 16.8 °C 1016.3 hPa NW 3.2 km/h 14.5 km/h 61% 0.0 mm 253 W/m2
17:09 24.6 °C 16.6 °C 1016.3 hPa WNW 3.2 km/h 11.3 km/h 61% 0.0 mm 200 W/m2
17:14 24.6 °C 16.8 °C 1016.3 hPa NW 3.2 km/h 14.5 km/h 62% 0.0 mm 234 W/m2
17:19 24.6 °C 16.6 °C 1016.3 hPa NNW 7.9 km/h 9.7 km/h 61% 0.0 mm 149 W/m2
17:24 24.6 °C 16.6 °C 1016.3 hPa WNW 9.7 km/h 9.7 km/h 61% 0.0 mm 171 W/m2
17:29 24.6 °C 16.6 °C 1016.3 hPa Calm   3.2 km/h 61% 0.0 mm 178 W/m2
17:34 24.6 °C 16.3 °C 1016.3 hPa North 4.7 km/h 6.4 km/h 60% 0.0 mm 200 W/m2
17:39 24.6 °C 15.8 °C 1016.3 hPa NNW 1.4 km/h 12.9 km/h 58% 0.0 mm 186 W/m2
17:44 24.6 °C 15.8 °C 1016.3 hPa NW 4.7 km/h 4.8 km/h 58% 0.0 mm 141 W/m2
17:49 24.5 °C 15.7 °C 1016.3 hPa NW 7.9 km/h 14.5 km/h 58% 0.0 mm 190 W/m2
17:54 24.5 °C 15.7 °C 1016.3 hPa Calm   6.4 km/h 58% 0.0 mm 185 W/m2
17:59 24.6 °C 15.5 °C 1016.3 hPa NE 3.2 km/h 14.5 km/h 57% 0.0 mm 135 W/m2
18:04 24.6 °C 15.5 °C 1016.6 hPa NNW 7.9 km/h 12.9 km/h 57% 0.0 mm 134 W/m2
18:09 24.8 °C 15.4 °C 1016.6 hPa North 3.2 km/h 12.9 km/h 56% 0.0 mm 524 W/m2
18:14 24.9 °C 15.5 °C 1016.6 hPa NNW 3.2 km/h 12.9 km/h 56% 0.0 mm 524 W/m2
18:19 24.9 °C 15 °C 1016.6 hPa NW 7.9 km/h 8 km/h 54% 0.0 mm 304 W/m2
18:24 24.9 °C 15 °C 1016.9 hPa West 3.2 km/h 4.8 km/h 54% 0.0 mm 350 W/m2
18:29 25.1 °C 15.4 °C 1016.6 hPa NNW 1.4 km/h 11.3 km/h 55% 0.0 mm 306 W/m2
18:34 25.3 °C 15.3 °C 1016.9 hPa NW 6.4 km/h 9.7 km/h 54% 0.0 mm 316 W/m2
18:39 25.4 °C 15.1 °C 1016.9 hPa NW 1.4 km/h 3.2 km/h 53% 0.0 mm 318 W/m2
18:44 25.5 °C 15.2 °C 1016.9 hPa SE 3.2 km/h 6.4 km/h 53% 0.0 mm 330 W/m2
18:49 25.6 °C 15.3 °C 1016.9 hPa SE 3.2 km/h 8 km/h 53% 0.0 mm 325 W/m2
18:54 25.6 °C 14.4 °C 1016.9 hPa NW 3.2 km/h 9.7 km/h 50% 0.0 mm 290 W/m2
18:59 25.3 °C 14.4 °C 1016.9 hPa West 14.3 km/h 14.5 km/h 51% 0.0 mm 77 W/m2
19:04 25.1 °C 14.3 °C 1016.9 hPa NW 4.7 km/h 9.7 km/h 51% 0.0 mm 120 W/m2
19:09 25.1 °C 14.3 °C 1016.9 hPa Calm   6.4 km/h 51% 0.0 mm 90 W/m2
19:14 25.3 °C 14.4 °C 1016.9 hPa Calm   3.2 km/h 51% 0.0 mm 84 W/m2
19:19 25.4 °C 14.5 °C 1017.3 hPa NNW 6.4 km/h 6.4 km/h 51% 0.0 mm 60 W/m2
19:24 25.1 °C 13.9 °C 1017.3 hPa West 6.4 km/h 12.9 km/h 50% 0.0 mm 62 W/m2
19:29 24.8 °C 14 °C 1016.9 hPa WNW 1.4 km/h 6.4 km/h 51% 0.0 mm 83 W/m2
19:34 24.8 °C 14 °C 1017.3 hPa SW 4.7 km/h 12.9 km/h 51% 0.0 mm 77 W/m2
19:39 24.8 °C 14 °C 1017.3 hPa WNW 3.2 km/h 16.1 km/h 51% 0.0 mm 76 W/m2
19:44 24.8 °C 14.3 °C 1017.3 hPa NNW 3.2 km/h 9.7 km/h 52% 0.0 mm 62 W/m2
19:49 24.6 °C 14.1 °C 1017.3 hPa West 4.7 km/h 16.1 km/h 52% 0.0 mm 62 W/m2
19:54 24.4 °C 14.2 °C 1017.3 hPa West 13 km/h 14.5 km/h 53% 0.0 mm 54 W/m2
19:59 24.2 °C 14 °C 1017.6 hPa WNW 3.2 km/h 16.1 km/h 53% 0.0 mm 49 W/m2
20:04 24 °C 14.1 °C 1017.6 hPa West 11.1 km/h 14.5 km/h 54% 0.0 mm 46 W/m2
20:09 23.8 °C 14.2 °C 1017.6 hPa NW 7.9 km/h 14.5 km/h 55% 0.0 mm 40 W/m2
20:14 23.6 °C 14.3 °C 1017.6 hPa West 11.1 km/h 16.1 km/h 56% 0.0 mm 37 W/m2
20:19 23.4 °C 14.1 °C 1018.0 hPa WSW 7.9 km/h 14.5 km/h 56% 0.0 mm 33 W/m2
20:24 23.3 °C 14.3 °C 1018.0 hPa WNW 16.3 km/h 16.1 km/h 57% 0.0 mm 30 W/m2
20:29 23.2 °C 14.5 °C 1018.0 hPa WNW 13 km/h 12.9 km/h 58% 0.0 mm 28 W/m2
20:34 23 °C 14.3 °C 1018.0 hPa NNW 6.4 km/h 14.5 km/h 58% 0.0 mm 28 W/m2
20:39 22.8 °C 14.1 °C 1018.3 hPa WNW 4.7 km/h 9.7 km/h 58% 0.0 mm 28 W/m2
20:44 22.7 °C 14.3 °C 1018.3 hPa West 9.7 km/h 12.9 km/h 59% 0.0 mm 25 W/m2
20:49 22.6 °C 14.2 °C 1018.3 hPa Calm   3.2 km/h 59% 0.0 mm 19 W/m2
20:54 22.4 °C 14 °C 1018.3 hPa WNW 6.4 km/h 12.9 km/h 59% 0.0 mm 14 W/m2
20:59 22.3 °C 13.9 °C 1018.3 hPa NW 4.7 km/h 9.7 km/h 59% 0.0 mm 12 W/m2
21:04 22.2 °C 13.8 °C 1018.6 hPa WSW 3.2 km/h 11.3 km/h 59% 0.0 mm 9 W/m2
21:09 22 °C 13.6 °C 1018.6 hPa West 1.4 km/h 14.5 km/h 59% 0.0 mm 7 W/m2
21:14 21.8 °C 13.4 °C 1019.0 hPa NW 14.3 km/h 14.5 km/h 59% 0.0 mm 5 W/m2
21:19 21.7 °C 13.3 °C 1019.0 hPa NW 7.9 km/h 14.5 km/h 59% 0.0 mm 5 W/m2
21:24 21.6 °C 13.5 °C 1019.0 hPa WNW 6.4 km/h 11.3 km/h 60% 0.0 mm 0 W/m2
21:29 21.5 °C 13.7 °C 1019.3 hPa WNW 11.1 km/h 11.3 km/h 61% 0.0 mm 0 W/m2
21:34 21.4 °C 13.6 °C 1019.3 hPa Calm   6.4 km/h 61% 0.0 mm 0 W/m2
21:39 21.3 °C 13.7 °C 1019.3 hPa WSW 1.4 km/h 11.3 km/h 62% 0.0 mm 0 W/m2
21:44 21.2 °C 13.6 °C 1019.6 hPa WNW 4.7 km/h 4.8 km/h 62% 0.0 mm 0 W/m2
21:49 21.2 °C 13.9 °C 1019.6 hPa NNW 3.2 km/h 6.4 km/h 63% 0.0 mm 0 W/m2
21:54 21 °C 13.7 °C 1019.6 hPa NE 4.7 km/h 11.3 km/h 63% 0.0 mm 0 W/m2
21:59 20.9 °C 13.6 °C 1020.0 hPa North 3.2 km/h 6.4 km/h 63% 0.0 mm 0 W/m2
22:04 20.8 °C 13.7 °C 1020.0 hPa NNE 1.4 km/h 6.4 km/h 64% 0.0 mm 0 W/m2
22:09 20.7 °C 13.6 °C 1020.0 hPa North 7.9 km/h 8 km/h 64% 0.0 mm 0 W/m2
22:14 20.6 °C 13.8 °C 1020.0 hPa NW 1.4 km/h 3.2 km/h 65% 0.0 mm 0 W/m2
22:19 20.4 °C 13.6 °C 1020.3 hPa WNW 3.2 km/h 3.2 km/h 65% 0.0 mm 0 W/m2
22:24 20.3 °C 13.5 °C 1020.3 hPa WNW 1.4 km/h 3.2 km/h 65% 0.0 mm 0 W/m2
22:29 20.3 °C 13.7 °C 1020.3 hPa NE 1.4 km/h 4.8 km/h 66% 0.0 mm 0 W/m2
22:34 20.2 °C 13.6 °C 1020.3 hPa NW 3.2 km/h 4.8 km/h 66% 0.0 mm 0 W/m2
22:39 20.1 °C 13.8 °C 1020.7 hPa North 1.4 km/h 3.2 km/h 67% 0.0 mm 0 W/m2
22:44 19.9 °C 13.8 °C 1020.7 hPa NNW 1.4 km/h 3.2 km/h 68% 0.0 mm 0 W/m2
22:49 19.8 °C 13.7 °C 1020.7 hPa NW 3.2 km/h 6.4 km/h 68% 0.0 mm 0 W/m2
22:54 19.8 °C 13.7 °C 1020.7 hPa NNW 1.4 km/h 6.4 km/h 68% 0.0 mm 0 W/m2
22:59 19.7 °C 13.6 °C 1021.0 hPa NW 4.7 km/h 4.8 km/h 68% 0.0 mm 0 W/m2
23:04 19.6 °C 13.5 °C 1021.0 hPa West 3.2 km/h 6.4 km/h 68% 0.0 mm 0 W/m2
23:09 19.5 °C 13.4 °C 1021.0 hPa West 3.2 km/h 6.4 km/h 68% 0.0 mm 0 W/m2
23:14 19.4 °C 13.6 °C 1021.0 hPa West 4.7 km/h 4.8 km/h 69% 0.0 mm 0 W/m2
23:19 19.4 °C 13.6 °C 1021.0 hPa Calm   3.2 km/h 69% 0.0 mm 0 W/m2
23:24 19.3 °C 13.5 °C 1021.3 hPa Calm   1.6 km/h 69% 0.0 mm 0 W/m2
23:29 19.2 °C 13.4 °C 1021.3 hPa NW 7.9 km/h 9.7 km/h 69% 0.0 mm 0 W/m2
23:34 19.2 °C 13.4 °C 1021.3 hPa WNW 3.2 km/h 6.4 km/h 69% 0.0 mm 0 W/m2
23:39 19.1 °C 13.5 °C 1021.3 hPa WNW 3.2 km/h 4.8 km/h 70% 0.0 mm 0 W/m2
23:44 19 °C 13.4 °C 1021.3 hPa WNW 3.2 km/h 6.4 km/h 70% 0.0 mm 0 W/m2
23:49 18.9 °C 13.3 °C 1021.3 hPa NNE 1.4 km/h 3.2 km/h 70% 0.0 mm 0 W/m2
23:54 18.9 °C 13.3 °C 1021.3 hPa NNW 3.2 km/h 6.4 km/h 70% 0.0 mm 0 W/m2
23:59 18.8 °C 13.2 °C 1021.3 hPa West 3.2 km/h 6.4 km/h 70% 0.0 mm 0 W/m2
Juneau County Weather
Compliments of Weather Underground - 4 mb